Aline, OK

6:30 AM CDT on July 11, 2014 (GMT -0500)
West (KOKCHERO2) Elev 1201 ft | 36.75 °N, 98.36 °W | Change Station

Current weather conditions updated 2 minutes ago

Clear
Clear
69.3 °F
Feels Like 69.3 °F
N
0.0
Wind Variable Wind from SE

Today is forecast to be Much Warmer than yesterday.

Today
High -- | Low -- °F
--% Chance of Precip.
Yesterday
High -- | Low -- °F
Precip. -- in
6:24 AM 8:53 PM
Waxing Gibbous, 99% visible
Pressure 29.99 in
Visibility 10.0 miles
Clouds Clear
Dew Point 65 °F
Humidity 85%
Rainfall 0.00 in
Snow Depth Not available.
UV 0.0 out of 12
Pollen 5.00 out of 12
Air Quality Not available.
Flu Activity Local Activity
METAR KAVK 111115Z AUTO 20011KT 10SM CLR 21/17 A2999 RMK AO2

More Conditions Fewer Conditions

Pressure 29.99 in
Visibility 10.0 miles
Clouds Clear
Dew Point 65 °F
Humidity 85%
Rainfall 0.00 in
Snow Depth Not available.
UV 0.0 out of 12
Pollen 5.00 out of 12
Air Quality Not available.
Flu Activity Local Activity
METAR KAVK 111115Z AUTO 20011KT 10SM CLR 21/17 A2999 RMK AO2

More Conditions Fewer Conditions

10-Day Weather Forecast

Almanac

Astronomy

Jul. 11, 2014 Rise Set
Actual Time 6:24 AM CDT 8:53 PM CDT
Civil Twilight 5:54 AM CDT 9:23 PM CDT
Nautical Twilight 5:17 AM CDT 10:00 PM CDT
Astronomical Twilight 4:36 AM CDT 10:41 PM CDT
Moon 8:07 PM CDT 5:36 AM CDT
Length of Visible Light 15h 28m
Length of Day
14h 28m
Tomorrow will be 1m 1s shorter.
Waxing Gibbous, 99% of the Moon is Illuminated
Today
Waxing Gibbous
Jul 12
Full
Jul 18
Last Quarter
Jul 26
New
Aug 3
First Quarter

Today's Extremes

State Highs State Lows

Community

WunderPhotos

Upload Photos

1,732,425 photos uploaded!

WunderBlogs® & News

Nearby

Snow Depth

Station Depth Elevation
No new snow has been reported.

Earthquake Activity

City Distance Mag. Time & Date
Medford, Oklahoma 42 miles 3.2 11:10 PM CDT
2014-07-05
Perry, Oklahoma 55 miles 3.3 8:44 PM CDT
2014-07-05
Minimum magnitude displayed is 2.5.

Coastal Water Temperatures

Place Temperature
No Stations Reporting

Nearby Weather Stations

Station Location Temp. Heat Index Dew Point Humidity Wind Precip. Elev Updated Type
West, Cherokee, OK 69.3 °F - 65 °F 85% SE  at  0.0 mph - / hr 1201 ft 6:27 AM CDT Normal
Amateur Radio W5PDB, Jet, OK 70.9 °F 74 °F 61 °F 70% SSE  at  5.0 mph 0.00 in / hr 1280 ft 6:30 AM CDT Rapid Fire
1 block east of NWOSU, Alva, OK 72.5 °F - 71 °F 95% North  at  0.0 mph 0.00 in / hr 1458 ft 6:30 AM CDT Rapid Fire

Show More Stations Show Fewer Stations